Ever Diamond — 3FQS8 — position and weather

sailwx.info

Track history (hours):
 
Tides and Currents Weather Stations Pressure Air Temp Water Temp Dewpoint Dewpoint Depression Visibility Wind Speed Wind Dir Waves Ship Positions

Ever Diamond

Last reported at 2014-Sep-15 06:10 UTC. Time now 2014-Sep-21 20:14 UTC.
Position N 30°29' E 123°03'.

Type: Ship (hazmat cat D). MMSI: 354893000.

Date/timePositionNaut miles runAvg speedWind from/ knotsBaromVisibWave heightAir tempDewpointWater temp
2014-Sep-15 06:10N 30°29' E 123°03'1117.8
2014-Sep-15 05:33N 30°28' E 122°51'1616.2
2014-Sep-15 04:34N 30°29' E 122°32'1413.9
2014-Sep-15 03:33N 30°33' E 122°16'1010.3
2014-Sep-15 02:33N 30°36' E 122°05'0 0.0
2014-Sep-14 20:23N 30°36' E 122°05'0 0.0
2014-Sep-14 14:06N 30°36' E 122°05'1 0.9
2014-Sep-14 13:32N 30°36' E 122°05'10 9.9
2014-Sep-14 12:33N 30°33' E 122°16'8 8.1
2014-Sep-14 11:33N 30°32' E 122°25'9 9.3
2014-Sep-14 10:33N 30°28' E 122°35'1 0.9
2014-Sep-14 09:31N 30°28' E 122°36'0 0.2
2014-Sep-14 07:06N 30°28' E 122°35'0 0.0
2014-Sep-14 06:06N 30°28' E 122°35'0 0.1
2014-Sep-14 05:12N 30°28' E 122°36'0 0.1
2014-Sep-14 03:18N 30°27' E 122°36'5 0.8
2014-Sep-13 21:33N 30°28' E 122°41'10 9.6
2014-Sep-13 20:33N 30°25' E 122°52'2110.0
2014-Sep-13 18:27N 30°04' E 122°56'1314.8
2014-Sep-13 17:33N 29°55' E 122°46'1514.6
2014-Sep-13 16:33N 29°43' E 122°36'1211.9
2014-Sep-13 15:33N 29°44' E 122°22'9 9.1
2014-Sep-13 14:33N 29°49' E 122°13'10 9.6
2014-Sep-13 13:33N 29°54' E 122°04'1 0.8
2014-Sep-13 12:13N 29°53' E 122°03'0 0.0
2014-Sep-13 10:10N 29°53' E 122°03'0 0.0
2014-Sep-13 08:32N 29°53' E 122°03'0 0.0
2014-Sep-13 06:25N 29°53' E 122°03'0 0.0
2014-Sep-13 04:07N 29°53' E 122°03'0 0.0
2014-Sep-13 02:26N 29°53' E 122°03'0 0.0
2014-Sep-13 01:31N 29°53' E 122°03'6 6.1
2014-Sep-13 00:33N 29°55' E 122°09'1211.9
2014-Sep-12 23:33N 29°46' E 122°18'6 6.2
2014-Sep-12 22:33N 29°44' E 122°24'8 7.8
2014-Sep-12 21:33N 29°40' E 122°32'5 5.4
2014-Sep-12 20:33N 29°39' E 122°38'7 6.7
2014-Sep-12 19:33N 29°35' E 122°32'1313.4
2014-Sep-12 18:33N 29°21' E 122°32'37915.1
2014-Sep-11 17:25N 23°55' E 118°57'2814.8
2014-Sep-11 15:31N 23°40' E 118°31'1615.4
2014-Sep-11 14:29N 23°31' E 118°16'1616.4
2014-Sep-11 13:31N 23°23' E 118°02'1616.9
2014-Sep-11 12:33N 23°14' E 117°47'1615.7
2014-Sep-11 11:33N 23°05' E 117°33'1514.6
2014-Sep-11 10:33N 22°59' E 117°18'1414.1
2014-Sep-11 09:34N 22°52' E 117°05'1714.2
2014-Sep-11 08:22N 22°44' E 116°49'14213.1
2014-Sep-10 21:34N 22°34' E 114°15'0 0.0
2014-Sep-10 20:32N 22°34' E 114°15'0 0.0
2014-Sep-10 19:30N 22°34' E 114°15'0 0.0
2014-Sep-10 18:30N 22°34' E 114°15'0 0.0
2014-Sep-10 17:30N 22°34' E 114°15'0 0.0
2014-Sep-10 16:30N 22°34' E 114°15'0 0.0
2014-Sep-10 15:30N 22°34' E 114°15'0 0.0
2014-Sep-10 14:30N 22°34' E 114°15'0 0.0
2014-Sep-10 13:30N 22°34' E 114°15'0 0.3
2014-Sep-10 12:33N 22°34' E 114°16'26 8.5
2014-Sep-10 09:31N 22°08' E 114°14'1312.4
2014-Sep-10 08:30N 22°18' E 114°06'2 0.1
2014-Sep-09 15:32N 22°20' E 114°07'30115.7
2014-Sep-08 20:24N 22°28' E 119°33'1416.1
2014-Sep-08 19:33N 22°29' E 119°48'1616.4
2014-Sep-08 18:33N 22°31' E 120°05'1313.3
2014-Sep-08 17:33N 22°33' E 120°20'0 0.3
2014-Sep-08 16:33N 22°33' E 120°20'0 0.0
2014-Sep-08 14:21N 22°33' E 120°20'0 0.0
2014-Sep-08 13:33N 22°33' E 120°20'0 0.0
2014-Sep-08 12:33N 22°33' E 120°20'0 0.0
2014-Sep-08 11:27N 22°33' E 120°20'0 0.0
2014-Sep-08 10:33N 22°33' E 120°20'0 0.0
2014-Sep-08 09:33N 22°33' E 120°20'0 0.0
2014-Sep-08 08:33N 22°33' E 120°20'0 0.0
2014-Sep-08 07:21N 22°33' E 120°20'0 0.0
2014-Sep-08 06:33N 22°33' E 120°20'0 0.0
2014-Sep-08 05:33N 22°33' E 120°20'0 0.0
2014-Sep-08 04:33N 22°33' E 120°20'0 0.0
2014-Sep-08 03:33N 22°33' E 120°20'0 0.0
2014-Sep-08 02:33N 22°33' E 120°20'0 0.0
2014-Sep-08 01:33N 22°33' E 120°20'0 0.0
2014-Sep-08 00:33N 22°33' E 120°20'0 0.0
2014-Sep-07 23:33N 22°33' E 120°20'0 0.0
2014-Sep-07 21:27N 22°33' E 120°20'0 0.0
2014-Sep-07 20:33N 22°33' E 120°20'4 4.3
2014-Sep-07 19:33N 22°32' E 120°16'0 0.4
2014-Sep-07 18:33N 22°32' E 120°15'0 0.0
2014-Sep-07 17:33N 22°32' E 120°15'0 0.0
2014-Sep-07 16:33N 22°32' E 120°15'0 0.1
2014-Sep-07 15:33N 22°32' E 120°15'0 0.0
2014-Sep-07 14:33N 22°32' E 120°15'0 0.1
2014-Sep-07 13:33N 22°32' E 120°15'0 0.0
2014-Sep-07 12:33N 22°32' E 120°15'0 0.0
2014-Sep-07 11:33N 22°32' E 120°15'0 0.1
2014-Sep-07 10:33N 22°32' E 120°15'0 0.0
2014-Sep-07 09:33N 22°32' E 120°15'0 0.0
2014-Sep-07 08:33N 22°32' E 120°15'0 0.1
2014-Sep-07 07:33N 22°32' E 120°15'5 5.5
2014-Sep-07 06:34N 22°35' E 120°11'1515.1
2014-Sep-07 05:34N 22°48' E 120°02'  
Track history (hours):
 
Tides and Currents Weather Stations Pressure Air Temp Water Temp Dewpoint Dewpoint Depression Visibility Wind Speed Wind Dir Waves Ship Positions

Ever Diamond

Last reported at 2014-Sep-15 06:10 UTC. Time now 2014-Sep-21 20:14 UTC.
Position N 30°29' E 123°03'.

Type: Ship (hazmat cat D). MMSI: 354893000.

Date/timePositionNaut miles runAvg speedWind from/ knotsBaromVisibWave heightAir tempDewpointWater temp
2014-Sep-15 06:10N 30°29' E 123°03'1117.8
2014-Sep-15 05:33N 30°28' E 122°51'1616.2
2014-Sep-15 04:34N 30°29' E 122°32'1413.9
2014-Sep-15 03:33N 30°33' E 122°16'1010.3
2014-Sep-15 02:33N 30°36' E 122°05'0 0.0
2014-Sep-14 20:23N 30°36' E 122°05'0 0.0
2014-Sep-14 14:06N 30°36' E 122°05'1 0.9
2014-Sep-14 13:32N 30°36' E 122°05'10 9.9
2014-Sep-14 12:33N 30°33' E 122°16'8 8.1
2014-Sep-14 11:33N 30°32' E 122°25'9 9.3
2014-Sep-14 10:33N 30°28' E 122°35'1 0.9
2014-Sep-14 09:31N 30°28' E 122°36'0 0.2
2014-Sep-14 07:06N 30°28' E 122°35'0 0.0
2014-Sep-14 06:06N 30°28' E 122°35'0 0.1
2014-Sep-14 05:12N 30°28' E 122°36'0 0.1
2014-Sep-14 03:18N 30°27' E 122°36'5 0.8
2014-Sep-13 21:33N 30°28' E 122°41'10 9.6
2014-Sep-13 20:33N 30°25' E 122°52'2110.0
2014-Sep-13 18:27N 30°04' E 122°56'1314.8
2014-Sep-13 17:33N 29°55' E 122°46'1514.6
2014-Sep-13 16:33N 29°43' E 122°36'1211.9
2014-Sep-13 15:33N 29°44' E 122°22'9 9.1
2014-Sep-13 14:33N 29°49' E 122°13'10 9.6
2014-Sep-13 13:33N 29°54' E 122°04'1 0.8
2014-Sep-13 12:13N 29°53' E 122°03'0 0.0
2014-Sep-13 10:10N 29°53' E 122°03'0 0.0
2014-Sep-13 08:32N 29°53' E 122°03'0 0.0
2014-Sep-13 06:25N 29°53' E 122°03'0 0.0
2014-Sep-13 04:07N 29°53' E 122°03'0 0.0
2014-Sep-13 02:26N 29°53' E 122°03'0 0.0
2014-Sep-13 01:31N 29°53' E 122°03'6 6.1
2014-Sep-13 00:33N 29°55' E 122°09'1211.9
2014-Sep-12 23:33N 29°46' E 122°18'6 6.2
2014-Sep-12 22:33N 29°44' E 122°24'8 7.8
2014-Sep-12 21:33N 29°40' E 122°32'5 5.4
2014-Sep-12 20:33N 29°39' E 122°38'7 6.7
2014-Sep-12 19:33N 29°35' E 122°32'1313.4
2014-Sep-12 18:33N 29°21' E 122°32'37915.1
2014-Sep-11 17:25N 23°55' E 118°57'2814.8
2014-Sep-11 15:31N 23°40' E 118°31'1615.4
2014-Sep-11 14:29N 23°31' E 118°16'1616.4
2014-Sep-11 13:31N 23°23' E 118°02'1616.9
2014-Sep-11 12:33N 23°14' E 117°47'1615.7
2014-Sep-11 11:33N 23°05' E 117°33'1514.6
2014-Sep-11 10:33N 22°59' E 117°18'1414.1
2014-Sep-11 09:34N 22°52' E 117°05'1714.2
2014-Sep-11 08:22N 22°44' E 116°49'14213.1
2014-Sep-10 21:34N 22°34' E 114°15'0 0.0
2014-Sep-10 20:32N 22°34' E 114°15'0 0.0
2014-Sep-10 19:30N 22°34' E 114°15'0 0.0
2014-Sep-10 18:30N 22°34' E 114°15'0 0.0
2014-Sep-10 17:30N 22°34' E 114°15'0 0.0
2014-Sep-10 16:30N 22°34' E 114°15'0 0.0
2014-Sep-10 15:30N 22°34' E 114°15'0 0.0
2014-Sep-10 14:30N 22°34' E 114°15'0 0.0
2014-Sep-10 13:30N 22°34' E 114°15'0 0.3
2014-Sep-10 12:33N 22°34' E 114°16'26 8.5
2014-Sep-10 09:31N 22°08' E 114°14'1312.4
2014-Sep-10 08:30N 22°18' E 114°06'2 0.1
2014-Sep-09 15:32N 22°20' E 114°07'30115.7
2014-Sep-08 20:24N 22°28' E 119°33'1416.1
2014-Sep-08 19:33N 22°29' E 119°48'1616.4
2014-Sep-08 18:33N 22°31' E 120°05'1313.3
2014-Sep-08 17:33N 22°33' E 120°20'0 0.3
2014-Sep-08 16:33N 22°33' E 120°20'0 0.0
2014-Sep-08 14:21N 22°33' E 120°20'0 0.0
2014-Sep-08 13:33N 22°33' E 120°20'0 0.0
2014-Sep-08 12:33N 22°33' E 120°20'0 0.0
2014-Sep-08 11:27N 22°33' E 120°20'0 0.0
2014-Sep-08 10:33N 22°33' E 120°20'0 0.0
2014-Sep-08 09:33N 22°33' E 120°20'0 0.0
2014-Sep-08 08:33N 22°33' E 120°20'0 0.0
2014-Sep-08 07:21N 22°33' E 120°20'0 0.0
2014-Sep-08 06:33N 22°33' E 120°20'0 0.0
2014-Sep-08 05:33N 22°33' E 120°20'0 0.0
2014-Sep-08 04:33N 22°33' E 120°20'0 0.0
2014-Sep-08 03:33N 22°33' E 120°20'0 0.0
2014-Sep-08 02:33N 22°33' E 120°20'0 0.0
2014-Sep-08 01:33N 22°33' E 120°20'0 0.0
2014-Sep-08 00:33N 22°33' E 120°20'0 0.0
2014-Sep-07 23:33N 22°33' E 120°20'0 0.0
2014-Sep-07 21:27N 22°33' E 120°20'0 0.0
2014-Sep-07 20:33N 22°33' E 120°20'4 4.3
2014-Sep-07 19:33N 22°32' E 120°16'0 0.4
2014-Sep-07 18:33N 22°32' E 120°15'0 0.0
2014-Sep-07 17:33N 22°32' E 120°15'0 0.0
2014-Sep-07 16:33N 22°32' E 120°15'0 0.1
2014-Sep-07 15:33N 22°32' E 120°15'0 0.0
2014-Sep-07 14:33N 22°32' E 120°15'0 0.1
2014-Sep-07 13:33N 22°32' E 120°15'0 0.0
2014-Sep-07 12:33N 22°32' E 120°15'0 0.0
2014-Sep-07 11:33N 22°32' E 120°15'0 0.1
2014-Sep-07 10:33N 22°32' E 120°15'0 0.0
2014-Sep-07 09:33N 22°32' E 120°15'0 0.0
2014-Sep-07 08:33N 22°32' E 120°15'0 0.1
2014-Sep-07 07:33N 22°32' E 120°15'5 5.5
2014-Sep-07 06:34N 22°35' E 120°11'1515.1
2014-Sep-07 05:34N 22°48' E 120°02'  

Dump ship's entire track history